Time;durP1;ratioP1;P1;durP2;ratioP2;P2;SDS_P1;SDS_P2;PMS_P1;PMS_P2;Temp;Humidity;BMP_temperature;BMP_pressure;BME280_temperature;BME280_humidity;BME280_pressure;Samples;Min_cycle;Max_cycle;Signal;HPM_P1;HPM_P2
2021/11/27 00:02:20;;;;;;;0.60;0.60;;;;;;;4.33;59.19;97991.78;8006630;28;20578;-66
2021/11/27 00:06:11;;;;;;;0.60;0.60;;;;;;;4.35;59.43;97982.09;8005778;28;20033;-66
2021/11/27 00:10:04;;;;;;;1.02;0.50;;;;;;;4.36;59.25;97985.53;8020944;28;20115;-66
2021/11/27 00:13:55;;;;;;;0.68;0.68;;;;;;;4.36;58.81;97972.53;8020136;28;20728;-66
2021/11/27 00:17:45;;;;;;;0.77;0.77;;;;;;;4.38;59.06;97975.81;8017590;28;20029;-66
2021/11/27 00:21:38;;;;;;;0.60;0.60;;;;;;;4.37;59.27;97968.94;8011231;28;20044;-66
2021/11/27 00:25:28;;;;;;;0.85;0.65;;;;;;;4.38;59.19;97971.44;8009614;28;20504;-66
2021/11/27 00:29:20;;;;;;;0.82;0.68;;;;;;;4.38;59.25;97962.81;8012226;28;20120;-66
2021/11/27 00:33:10;;;;;;;10.48;1.10;;;;;;;4.39;59.20;97972.25;8010322;28;20037;-66
2021/11/27 00:37:01;;;;;;;0.70;0.70;;;;;;;4.39;59.27;97974.84;8009394;28;20614;-66
2021/11/27 00:40:52;;;;;;;0.75;0.75;;;;;;;4.41;59.28;97978.13;8024562;28;20116;-66
2021/11/27 00:44:43;;;;;;;0.73;0.70;;;;;;;4.42;59.22;97984.97;8008081;28;20071;-66
2021/11/27 00:48:34;;;;;;;0.70;0.70;;;;;;;4.42;59.23;97980.59;8025575;28;20464;-66
2021/11/27 00:52:25;;;;;;;0.80;0.80;;;;;;;4.43;59.13;97979.66;8041647;28;20464;-67
2021/11/27 00:56:17;;;;;;;0.98;0.73;;;;;;;4.43;59.15;97981.44;8038540;28;20538;-66
2021/11/27 01:00:14;;;;;;;1.73;0.93;;;;;;;4.45;59.43;97974.31;8022452;28;20036;-66
2021/11/27 01:04:05;;;;;;;2.08;0.93;;;;;;;4.45;59.45;97972.53;8032454;28;20040;-67
2021/11/27 01:07:56;;;;;;;1.23;0.80;;;;;;;4.44;59.47;97978.69;8011982;28;20029;-66
2021/11/27 01:11:53;;;;;;;0.73;0.73;;;;;;;4.46;59.22;97978.56;8025910;28;20037;-66
2021/11/27 01:15:45;;;;;;;1.10;0.90;;;;;;;4.47;59.46;97980.22;8013473;28;20057;-66
2021/11/27 01:19:39;;;;;;;0.70;0.70;;;;;;;4.47;59.35;97980.22;8012223;28;20552;-66
2021/11/27 01:23:30;;;;;;;0.85;0.85;;;;;;;4.48;59.40;97980.06;8010909;28;20048;-66
2021/11/27 01:27:23;;;;;;;2.20;1.10;;;;;;;4.48;59.64;97980.06;8040325;28;20029;-66
2021/11/27 01:31:14;;;;;;;0.65;0.65;;;;;;;4.47;59.35;97975.84;8034300;28;20029;-67
2021/11/27 01:35:05;;;;;;;0.80;0.80;;;;;;;4.45;59.42;97976.91;8008833;28;20435;-66
2021/11/27 01:38:56;;;;;;;1.40;0.93;;;;;;;4.47;59.34;97972.41;8028144;28;20089;-66
2021/11/27 01:42:48;;;;;;;2.67;0.93;;;;;;;4.45;59.54;97977.72;8037403;28;20041;-66
2021/11/27 01:46:39;;;;;;;0.90;0.90;;;;;;;4.45;59.63;97980.34;8036343;28;20033;-66
2021/11/27 01:50:34;;;;;;;0.80;0.80;;;;;;;4.46;59.43;97974.19;8024579;28;20051;-66
2021/11/27 01:54:26;;;;;;;0.80;0.80;;;;;;;4.46;59.39;97981.16;8035846;28;20118;-66
2021/11/27 01:58:16;;;;;;;1.00;0.90;;;;;;;4.45;59.60;97982.94;8028800;28;20029;-66
2021/11/27 02:02:13;;;;;;;1.15;1.00;;;;;;;4.44;59.35;97983.88;8012996;28;20036;-66
2021/11/27 02:06:05;;;;;;;1.42;1.17;;;;;;;4.44;59.50;97989.09;8031158;28;20044;-66
2021/11/27 02:09:56;;;;;;;0.93;0.93;;;;;;;4.39;59.54;97990.44;8013845;28;20460;-66
2021/11/27 02:13:47;;;;;;;0.90;0.90;;;;;;;4.38;59.55;97991.41;8013553;28;20466;-66
2021/11/27 02:17:39;;;;;;;1.27;1.10;;;;;;;4.35;59.53;98000.28;8027063;28;20052;-66
2021/11/27 02:21:31;;;;;;;2.17;1.20;;;;;;;4.30;59.62;97996.44;8026106;28;20056;-66
2021/11/27 02:25:22;;;;;;;1.15;1.08;;;;;;;4.27;59.67;98002.72;8006435;28;20036;-66
2021/11/27 02:29:17;;;;;;;1.30;1.20;;;;;;;4.21;59.56;98009.25;8023196;28;20036;-66
2021/11/27 02:33:08;;;;;;;1.55;1.33;;;;;;;4.15;59.20;98014.16;8014430;28;20036;-66
2021/11/27 02:37:02;;;;;;;1.15;1.05;;;;;;;4.08;59.41;98013.00;8020574;28;20049;-66
2021/11/27 02:40:54;;;;;;;1.40;1.30;;;;;;;4.04;59.33;98015.03;8010718;28;20528;-66
2021/11/27 02:44:45;;;;;;;1.30;1.20;;;;;;;4.00;59.39;98016.25;8008964;28;20131;-66
2021/11/27 02:48:36;;;;;;;1.95;1.40;;;;;;;3.93;59.03;98022.09;8014189;28;20695;-66
2021/11/27 02:52:28;;;;;;;1.70;1.48;;;;;;;3.89;59.13;98031.09;8013444;28;20416;-66
2021/11/27 02:56:19;;;;;;;3.75;1.63;;;;;;;3.82;59.33;98035.16;8025839;28;20036;-66
2021/11/27 03:00:13;;;;;;;1.23;1.13;;;;;;;3.72;59.16;98038.50;8025282;28;20116;-66
2021/11/27 03:04:04;;;;;;;1.50;1.40;;;;;;;3.67;58.88;98053.66;8026394;28;20040;-66
2021/11/27 03:07:55;;;;;;;1.38;1.27;;;;;;;3.62;59.03;98049.78;8004969;28;20292;-66
2021/11/27 03:11:53;;;;;;;1.60;1.50;;;;;;;3.59;59.08;98045.66;8031447;28;20033;-66
2021/11/27 03:15:44;;;;;;;3.40;1.80;;;;;;;3.57;58.91;98052.72;8022130;28;20028;-66
2021/11/27 03:19:38;;;;;;;2.13;1.38;;;;;;;3.59;58.88;98050.84;8004926;28;20116;-66
2021/11/27 03:23:30;;;;;;;1.40;1.30;;;;;;;3.59;59.08;98055.22;8021355;28;20037;-66
2021/11/27 03:27:22;;;;;;;1.85;1.30;;;;;;;3.59;58.97;98058.66;8027654;28;20123;-66
2021/11/27 03:31:14;;;;;;;1.40;1.30;;;;;;;3.58;58.84;98053.56;8033297;28;20185;-66
2021/11/27 03:35:06;;;;;;;1.38;1.27;;;;;;;3.55;58.87;98066.81;8031256;28;20572;-66
2021/11/27 03:39:07;;;;;;;1.40;1.30;;;;;;;3.56;58.82;98089.22;8029708;28;20037;-66
2021/11/27 03:42:58;;;;;;;1.30;1.20;;;;;;;3.53;58.75;98085.09;8028871;28;20033;-66
2021/11/27 03:46:49;;;;;;;1.23;1.13;;;;;;;3.51;59.07;98092.19;8011801;28;20047;-67
2021/11/27 03:50:46;;;;;;;1.02;1.00;;;;;;;3.52;58.94;98098.19;8007485;28;20119;-66
2021/11/27 03:54:36;;;;;;;1.20;1.10;;;;;;;3.50;58.61;98113.88;8016763;28;20048;-66
2021/11/27 03:58:28;;;;;;;4.93;1.20;;;;;;;3.51;58.94;98109.53;8009208;28;20036;-66
2021/11/27 04:02:18;;;;;;;1.25;1.17;;;;;;;3.51;58.94;98110.34;8023195;28;20401;-66
2021/11/27 04:06:10;;;;;;;1.08;0.98;;;;;;;3.51;58.97;98120.75;8021528;28;20529;-66
2021/11/27 04:10:01;;;;;;;1.40;1.30;;;;;;;3.50;59.10;98111.28;8025417;28;20047;-66
2021/11/27 04:13:54;;;;;;;1.88;1.50;;;;;;;3.51;58.98;98118.13;8035171;28;20432;-66
2021/11/27 04:17:44;;;;;;;1.27;1.17;;;;;;;3.49;59.28;98121.81;8016513;28;20033;-66
2021/11/27 04:21:35;;;;;;;1.40;1.20;;;;;;;3.48;58.96;98127.94;8034865;28;20127;-66
2021/11/27 04:25:27;;;;;;;1.58;1.23;;;;;;;3.50;58.92;98126.03;8032962;28;20037;-66
2021/11/27 04:29:17;;;;;;;1.95;1.70;;;;;;;3.47;59.17;98113.31;8032231;28;20135;-66
2021/11/27 04:33:09;;;;;;;2.17;1.50;;;;;;;3.48;58.79;98115.81;8036532;28;20115;-66
2021/11/27 04:37:11;;;;;;;2.40;1.70;;;;;;;3.48;59.17;98139.16;8017454;28;20041;-66
2021/11/27 04:41:02;;;;;;;1.92;1.60;;;;;;;3.46;59.06;98142.81;8032507;28;20123;-66
2021/11/27 04:44:53;;;;;;;2.25;1.70;;;;;;;3.44;59.11;98158.53;8030953;28;20033;-66
2021/11/27 04:48:44;;;;;;;2.25;1.90;;;;;;;3.45;59.09;98164.53;8027678;28;20111;-66
2021/11/27 04:52:35;;;;;;;2.22;1.80;;;;;;;3.45;59.07;98161.94;8028091;28;20037;-66
2021/11/27 04:56:26;;;;;;;2.33;2.05;;;;;;;3.46;58.85;98166.16;8025928;28;20033;-66
2021/11/27 05:00:26;;;;;;;4.63;2.13;;;;;;;3.44;59.12;98175.84;8017351;28;20287;-66
2021/11/27 05:04:17;;;;;;;2.97;2.08;;;;;;;3.42;58.92;98173.38;8040379;28;20040;-66
2021/11/27 05:08:08;;;;;;;2.70;2.20;;;;;;;3.41;58.73;98178.66;8038257;28;20040;-67
2021/11/27 05:11:59;;;;;;;2.97;2.40;;;;;;;3.36;58.87;98189.44;8015608;28;20120;-66
2021/11/27 05:15:50;;;;;;;2.50;2.30;;;;;;;3.36;58.63;98201.59;8015165;28;20033;-66
2021/11/27 05:19:42;;;;;;;2.95;2.22;;;;;;;3.35;58.57;98200.75;8033809;28;20044;-66
2021/11/27 05:23:43;;;;;;;3.42;2.70;;;;;;;3.35;58.62;98200.75;8029206;28;20497;-66
2021/11/27 05:27:54;;;;;;;4.25;2.45;;;;;;;3.33;58.70;98195.69;8031247;28;20370;-66
2021/11/27 05:32:04;;;;;;;4.05;2.75;;;;;;;3.33;58.69;98200.03;7996950;28;20106;-66
2021/11/27 05:35:57;;;;;;;3.13;2.67;;;;;;;3.31;58.75;98209.72;8010025;28;20072;-66
2021/11/27 05:39:48;;;;;;;2.97;2.58;;;;;;;3.31;58.96;98207.13;8026011;28;20033;-66
2021/11/27 05:43:39;;;;;;;3.35;2.90;;;;;;;3.27;58.70;98203.09;8017358;28;20126;-66
2021/11/27 05:47:30;;;;;;;3.08;2.53;;;;;;;3.24;58.81;98204.16;8024438;28;20466;-66
2021/11/27 05:51:22;;;;;;;3.70;2.90;;;;;;;3.24;58.74;98219.72;8032003;28;20111;-66
2021/11/27 05:55:12;;;;;;;3.40;2.72;;;;;;;3.23;58.67;98225.03;8023909;28;20389;-66
2021/11/27 05:59:03;;;;;;;4.22;2.92;;;;;;;3.21;58.87;98224.31;8015739;28;20116;-66
2021/11/27 06:02:54;;;;;;;3.65;2.80;;;;;;;3.19;58.68;98231.41;8019629;28;20429;-65
2021/11/27 06:06:45;;;;;;;4.18;2.80;;;;;;;3.20;58.57;98240.84;8019070;28;20733;-65
2021/11/27 06:10:35;;;;;;;4.28;2.92;;;;;;;3.21;58.46;98245.06;8019636;28;20128;-65
2021/11/27 06:14:26;;;;;;;3.47;2.85;;;;;;;3.21;58.83;98250.25;8019294;28;20033;-65
2021/11/27 06:18:16;;;;;;;3.92;2.90;;;;;;;3.22;58.42;98257.94;8011697;28;20037;-65
2021/11/27 06:22:07;;;;;;;2.42;2.22;;;;;;;3.22;58.95;98257.94;8011578;28;20040;-65
2021/11/27 06:25:58;;;;;;;5.53;2.45;;;;;;;3.24;58.73;98265.63;8012680;28;20040;-65
2021/11/27 06:29:49;;;;;;;4.38;2.78;;;;;;;3.23;58.53;98271.75;8010767;28;20033;-65
2021/11/27 06:33:40;;;;;;;3.92;2.92;;;;;;;3.26;58.60;98268.91;8011398;28;20037;-65
2021/11/27 06:37:33;;;;;;;3.47;2.78;;;;;;;3.25;58.57;98285.41;8010103;28;20033;-65
2021/11/27 06:41:23;;;;;;;3.05;2.75;;;;;;;3.25;58.74;98282.81;8008228;28;20054;-65
2021/11/27 06:45:47;;;;;;;2.78;2.35;;;;;;;3.25;58.99;98295.78;7978316;28;20047;-65
2021/11/27 06:49:37;;;;;;;5.00;2.70;;;;;;;3.25;58.86;98300.97;8020459;28;20397;-65
2021/11/27 06:53:28;;;;;;;4.22;2.92;;;;;;;3.24;59.13;98299.34;8019387;28;20148;-65
2021/11/27 06:57:18;;;;;;;3.55;2.95;;;;;;;3.25;58.65;98299.22;8017354;28;20024;-65
2021/11/27 07:01:09;;;;;;;3.85;3.10;;;;;;;3.23;58.68;98315.84;8012110;28;20183;-65
2021/11/27 07:05:18;;;;;;;3.65;2.92;;;;;;;3.18;58.94;98317.97;8001489;28;20588;-65
2021/11/27 07:09:16;;;;;;;5.93;3.00;;;;;;;3.16;58.75;98331.03;7997872;28;20037;-65
2021/11/27 07:13:30;;;;;;;5.07;3.20;;;;;;;3.15;58.79;98341.53;7994427;28;20599;-65
2021/11/27 07:17:22;;;;;;;3.55;3.15;;;;;;;3.14;58.86;98345.06;8022710;28;20038;-66
2021/11/27 07:21:13;;;;;;;4.63;3.55;;;;;;;3.11;58.73;98347.91;8020876;28;20128;-65
2021/11/27 07:25:04;;;;;;;6.78;3.22;;;;;;;3.14;58.83;98356.28;8005069;28;20032;-65
2021/11/27 07:29:15;;;;;;;8.90;4.63;;;;;;;3.14;58.66;98363.22;8005364;28;20493;-65
2021/11/27 07:33:10;;;;;;;4.72;3.72;;;;;;;3.15;58.76;98380.47;8019747;28;20653;-66
2021/11/27 07:37:01;;;;;;;7.55;4.03;;;;;;;3.15;58.95;98389.06;8017579;28;20171;-65
2021/11/27 07:40:51;;;;;;;4.70;3.97;;;;;;;3.14;58.98;98390.00;8005042;28;20033;-65
2021/11/27 07:44:42;;;;;;;5.00;3.95;;;;;;;3.17;58.81;98399.31;8010233;28;20075;-65
2021/11/27 07:48:52;;;;;;;6.57;4.07;;;;;;;3.16;58.74;98403.66;8003981;28;20041;-65
2021/11/27 07:53:14;;;;;;;5.65;3.70;;;;;;;3.14;58.91;98412.53;7971759;28;20049;-65
2021/11/27 07:57:06;;;;;;;4.35;3.50;;;;;;;3.12;58.84;98420.41;8010818;28;20082;-65
2021/11/27 08:00:56;;;;;;;5.88;4.10;;;;;;;3.13;58.80;98416.88;8012763;28;20039;-65
2021/11/27 08:04:47;;;;;;;5.00;3.70;;;;;;;3.13;59.09;98429.84;8013846;28;20112;-65
2021/11/27 08:08:38;;;;;;;6.22;4.15;;;;;;;3.12;58.80;98427.34;8027257;28;20052;-65
2021/11/27 08:12:29;;;;;;;5.72;4.45;;;;;;;3.12;58.82;98427.34;8036230;28;20600;-65
2021/11/27 08:16:20;;;;;;;8.93;5.03;;;;;;;3.11;58.59;98442.13;8011479;28;20644;-65
2021/11/27 08:20:10;;;;;;;6.90;5.18;;;;;;;3.09;58.74;98432.78;8026356;28;20035;-65
2021/11/27 08:24:01;;;;;;;6.28;4.10;;;;;;;3.10;58.38;98448.25;8011812;28;20124;-65
2021/11/27 08:27:52;;;;;;;7.47;4.43;;;;;;;3.10;58.70;98456.03;7999598;28;20421;-65
2021/11/27 08:31:43;;;;;;;9.73;4.82;;;;;;;3.10;58.69;98462.97;8011570;28;20086;-65
2021/11/27 08:35:34;;;;;;;7.13;4.25;;;;;;;3.11;58.79;98465.47;8011166;28;20032;-65
2021/11/27 08:39:24;;;;;;;8.68;4.95;;;;;;;3.14;58.91;98469.59;8010166;28;20075;-65
2021/11/27 08:43:15;;;;;;;7.55;4.00;;;;;;;3.13;59.05;98467.94;8006589;28;20029;-65
2021/11/27 08:47:06;;;;;;;6.03;3.65;;;;;;;3.18;58.82;98479.63;8009488;28;20033;-65
2021/11/27 08:50:56;;;;;;;9.93;4.40;;;;;;;3.18;58.87;98484.00;8009815;28;20025;-65
2021/11/27 08:54:47;;;;;;;6.40;4.13;;;;;;;3.21;59.02;98492.38;8009367;28;20029;-65
2021/11/27 08:58:39;;;;;;;6.10;4.10;;;;;;;3.22;58.74;98481.06;8006583;28;20104;-65
2021/11/27 09:02:30;;;;;;;10.30;4.32;;;;;;;3.27;58.99;98485.91;8009366;28;20063;-65
2021/11/27 09:06:20;;;;;;;5.88;3.97;;;;;;;3.29;59.11;98477.09;8007018;28;20047;-65
2021/11/27 09:10:12;;;;;;;9.18;3.78;;;;;;;3.32;59.30;98484.66;8010355;28;20044;-65
2021/11/27 09:14:05;;;;;;;5.28;3.25;;;;;;;3.38;59.14;98500.72;8017211;28;20493;-65
2021/11/27 09:17:56;;;;;;;5.10;2.75;;;;;;;3.38;59.32;98500.72;8006940;28;20024;-65
2021/11/27 09:21:49;;;;;;;8.90;2.63;;;;;;;3.40;59.36;98514.44;8024169;28;20072;-65
2021/11/27 09:25:40;;;;;;;7.47;3.30;;;;;;;3.40;59.29;98515.25;8008037;28;20132;-65
2021/11/27 09:29:33;;;;;;;5.07;2.80;;;;;;;3.40;59.38;98519.63;8022201;28;20031;-65
2021/11/27 09:33:23;;;;;;;4.38;2.70;;;;;;;3.41;59.36;98524.69;8004741;28;21413;-65
2021/11/27 09:37:16;;;;;;;10.43;4.45;;;;;;;3.45;59.55;98530.50;8007728;28;20738;-65
2021/11/27 09:41:22;;;;;;;4.40;2.47;;;;;;;3.52;59.68;98536.88;8007862;28;20554;-65
2021/11/27 09:45:13;;;;;;;5.90;2.80;;;;;;;3.62;59.71;98548.22;8009002;28;20108;-65
2021/11/27 09:49:07;;;;;;;4.90;2.65;;;;;;;3.70;59.65;98553.69;8007728;28;20090;-65
2021/11/27 09:52:58;;;;;;;5.63;2.58;;;;;;;3.74;59.73;98558.53;8008383;28;20116;-65
2021/11/27 09:56:52;;;;;;;4.80;2.45;;;;;;;3.74;59.52;98560.28;8004454;28;20040;-65
2021/11/27 10:00:43;;;;;;;4.97;2.85;;;;;;;3.73;59.26;98572.47;8023349;28;20056;-65
2021/11/27 10:04:36;;;;;;;4.28;2.60;;;;;;;3.73;59.49;98567.28;8009519;28;20049;-65
2021/11/27 10:08:27;;;;;;;6.18;2.75;;;;;;;3.72;59.57;98562.19;8012547;28;20570;-65
2021/11/27 10:12:21;;;;;;;7.03;2.90;;;;;;;3.76;59.36;98584.41;8006956;28;20029;-65
2021/11/27 10:16:12;;;;;;;7.75;2.92;;;;;;;3.78;59.46;98579.91;8008304;28;20143;-65
2021/11/27 10:20:07;;;;;;;6.40;2.90;;;;;;;3.82;59.54;98589.13;8011569;28;20036;-65
2021/11/27 10:23:59;;;;;;;5.45;2.47;;;;;;;3.84;59.25;98583.81;8006958;28;20036;-65
2021/11/27 10:27:50;;;;;;;7.18;2.55;;;;;;;3.84;59.68;98583.81;8003470;28;20060;-65
2021/11/27 10:31:42;;;;;;;3.65;2.53;;;;;;;3.86;59.37;98587.97;8007747;28;20044;-65
2021/11/27 10:35:32;;;;;;;5.05;2.17;;;;;;;3.87;59.50;98581.81;8010770;28;20483;-66
2021/11/27 10:39:23;;;;;;;7.28;3.25;;;;;;;3.87;59.35;98584.41;8011038;28;20033;-65
2021/11/27 10:43:14;;;;;;;6.50;2.70;;;;;;;3.91;59.43;98587.59;8010368;28;20115;-66
2021/11/27 10:47:15;;;;;;;7.53;2.88;;;;;;;3.90;59.25;98597.19;8029730;28;20032;-65
2021/11/27 10:51:06;;;;;;;8.00;2.28;;;;;;;3.92;59.42;98595.28;8010864;28;20612;-66
2021/11/27 10:54:58;;;;;;;4.82;2.47;;;;;;;3.93;59.33;98596.13;8005774;28;20545;-65
2021/11/27 10:59:00;;;;;;;7.43;2.35;;;;;;;3.96;59.18;98601.09;8009265;28;20036;-65
2021/11/27 11:02:51;;;;;;;4.63;2.20;;;;;;;3.96;59.14;98595.91;8010703;28;20042;-66
2021/11/27 11:06:41;;;;;;;8.55;2.95;;;;;;;3.97;59.25;98584.56;8011155;28;20441;-65
2021/11/27 11:10:34;;;;;;;9.00;2.65;;;;;;;3.98;59.26;98586.22;8005063;28;20051;-66
2021/11/27 11:14:26;;;;;;;8.30;1.90;;;;;;;3.99;59.33;98587.88;8013355;28;20436;-65
2021/11/27 11:18:24;;;;;;;8.25;2.15;;;;;;;4.00;59.01;98592.97;8010934;28;20056;-66
2021/11/27 11:22:19;;;;;;;5.28;1.60;;;;;;;4.01;58.83;98594.63;8006874;28;20477;-65
2021/11/27 11:26:11;;;;;;;5.90;1.90;;;;;;;4.04;58.87;98598.75;8008958;28;20594;-66
2021/11/27 11:30:05;;;;;;;4.05;1.67;;;;;;;4.06;58.74;98596.88;8007131;28;20108;-66
2021/11/27 11:33:58;;;;;;;5.65;1.58;;;;;;;4.06;58.82;98602.06;8019320;28;20035;-65
2021/11/27 11:37:49;;;;;;;5.72;1.55;;;;;;;4.06;58.70;98607.28;8006558;28;20143;-65
2021/11/27 11:41:40;;;;;;;5.25;1.35;;;;;;;4.07;58.69;98607.13;8008775;28;20558;-66
2021/11/27 11:45:31;;;;;;;7.47;1.85;;;;;;;4.07;58.48;98609.72;8006064;28;20025;-66
2021/11/27 11:49:22;;;;;;;5.07;1.60;;;;;;;4.09;58.64;98604.44;8005075;28;20045;-65
2021/11/27 11:53:34;;;;;;;10.40;2.10;;;;;;;4.10;58.63;98608.69;8009935;28;20033;-65
2021/11/27 11:57:44;;;;;;;8.13;1.77;;;;;;;4.09;58.72;98618.25;8006642;28;20032;-65
2021/11/27 12:01:35;;;;;;;2.70;1.60;;;;;;;4.12;58.72;98620.63;8001005;28;20767;-66
2021/11/27 12:05:27;;;;;;;6.47;1.75;;;;;;;4.12;58.69;98614.59;8007732;28;20663;-66
2021/11/27 12:09:17;;;;;;;8.73;2.25;;;;;;;4.20;58.60;98614.84;8011145;28;20068;-66
2021/11/27 12:13:08;;;;;;;6.20;1.92;;;;;;;4.24;58.75;98609.28;8004670;28;20308;-66
2021/11/27 12:17:16;;;;;;;6.70;2.28;;;;;;;4.33;58.52;98620.78;8001166;28;20059;-66
2021/11/27 12:21:15;;;;;;;6.40;2.10;;;;;;;4.40;58.63;98627.16;8002887;28;20396;-66
2021/11/27 12:25:25;;;;;;;;;;;;;;;4.39;59.06;98628.13;8003847;28;20715;-66
2021/11/27 12:29:16;;;;;;;10.20;2.63;;;;;;;4.50;58.74;98630.72;8001551;28;19921;-66
2021/11/27 12:33:07;;;;;;;5.65;1.67;;;;;;;4.60;58.88;98634.28;8004334;28;20082;-66
2021/11/27 12:36:58;;;;;;;4.55;2.25;;;;;;;4.68;58.63;98634.53;8003674;28;20536;-66
2021/11/27 12:40:48;;;;;;;5.13;1.60;;;;;;;4.74;58.59;98633.19;8003496;28;20489;-66
2021/11/27 12:44:49;;;;;;;4.78;1.83;;;;;;;4.74;58.42;98623.63;8009064;28;20162;-66
2021/11/27 12:48:40;;;;;;;5.07;1.63;;;;;;;4.74;58.35;98639.22;8007634;28;20043;-66
2021/11/27 12:52:36;;;;;;;4.97;2.08;;;;;;;4.72;58.18;98638.53;8009793;28;20037;-66
2021/11/27 12:56:53;;;;;;;5.15;1.80;;;;;;;4.67;58.03;98632.03;8007641;28;20033;-66
2021/11/27 13:00:43;;;;;;;7.43;2.20;;;;;;;4.67;57.93;98650.22;7981032;28;20107;-66
2021/11/27 13:04:37;;;;;;;4.78;1.90;;;;;;;4.65;58.21;98639.94;8009680;28;20037;-65
2021/11/27 13:08:30;;;;;;;4.18;1.88;;;;;;;4.64;58.04;98646.09;8007336;28;20045;-66
2021/11/27 13:12:20;;;;;;;6.57;2.10;;;;;;;4.62;58.14;98650.59;8033392;28;20051;-65
2021/11/27 13:16:17;;;;;;;9.32;1.92;;;;;;;4.61;57.84;98653.28;8009889;28;20489;-66
2021/11/27 13:20:08;;;;;;;4.93;1.80;;;;;;;4.57;57.88;98657.91;8016670;28;20155;-65
2021/11/27 13:24:02;;;;;;;3.92;1.63;;;;;;;4.54;57.96;98657.31;8006928;28;20051;-66
2021/11/27 13:27:53;;;;;;;8.15;1.83;;;;;;;4.49;57.84;98646.41;8003885;28;20091;-66
2021/11/27 13:31:43;;;;;;;7.32;1.73;;;;;;;4.47;57.71;98649.16;8007677;28;20045;-65
2021/11/27 13:35:37;;;;;;;5.00;1.80;;;;;;;4.46;57.73;98651.88;8010879;28;20029;-66
2021/11/27 13:39:29;;;;;;;2.42;1.20;;;;;;;4.45;57.79;98661.44;8014507;28;20064;-66
2021/11/27 13:43:20;;;;;;;4.03;1.90;;;;;;;4.45;57.82;98655.41;8008411;28;20455;-66
2021/11/27 13:47:12;;;;;;;3.28;1.50;;;;;;;4.43;57.63;98654.69;8007153;28;20528;-66
2021/11/27 13:51:03;;;;;;;3.58;1.27;;;;;;;4.44;57.95;98664.97;8008020;28;20033;-66
2021/11/27 13:54:56;;;;;;;5.90;2.05;;;;;;;4.45;57.75;98674.44;8006729;28;20581;-66
2021/11/27 13:58:54;;;;;;;6.63;1.58;;;;;;;4.45;57.78;98671.84;8004422;28;20125;-66
2021/11/27 14:02:46;;;;;;;4.18;1.40;;;;;;;4.46;57.83;98667.47;8008096;28;20048;-65
2021/11/27 14:06:37;;;;;;;6.03;1.50;;;;;;;4.46;57.94;98680.47;8003771;28;20128;-66
2021/11/27 14:10:27;;;;;;;3.75;1.17;;;;;;;4.47;57.77;98669.97;8007507;28;20090;-65
2021/11/27 14:14:18;;;;;;;3.53;1.13;;;;;;;4.51;57.95;98683.56;8007181;28;20139;-65
2021/11/27 14:18:25;;;;;;;1.67;1.05;;;;;;;4.53;57.80;98686.84;8007269;28;20132;-66
2021/11/27 14:22:15;;;;;;;7.35;1.60;;;;;;;4.51;57.98;98689.59;8004670;28;20660;-66
2021/11/27 14:26:17;;;;;;;5.57;1.50;;;;;;;4.53;57.73;98697.25;8005686;28;20750;-66
2021/11/27 14:30:20;;;;;;;8.32;2.78;;;;;;;4.52;57.66;98701.66;8005944;28;20493;-66
2021/11/27 14:34:18;;;;;;;4.03;1.60;;;;;;;4.47;57.66;98690.75;8006828;28;20033;-66
2021/11/27 14:38:08;;;;;;;2.83;1.40;;;;;;;4.45;57.39;98708.22;8012491;28;20494;-66
2021/11/27 14:42:10;;;;;;;4.53;1.70;;;;;;;4.45;57.41;98708.22;8004480;28;20509;-65
2021/11/27 14:46:02;;;;;;;4.05;1.58;;;;;;;4.45;57.47;98721.22;8021033;28;20023;-66
2021/11/27 14:49:58;;;;;;;4.28;2.15;;;;;;;4.44;57.31;98716.97;8005732;28;20029;-66
2021/11/27 14:53:49;;;;;;;2.72;1.27;;;;;;;4.40;57.38;98720.75;8024103;28;20032;-66
2021/11/27 14:57:41;;;;;;;4.03;1.40;;;;;;;4.37;57.19;98722.75;8002053;28;20579;-66
2021/11/27 15:01:31;;;;;;;4.30;1.58;;;;;;;4.33;57.12;98722.16;8009839;28;20123;-66
2021/11/27 15:05:22;;;;;;;8.40;2.05;;;;;;;4.30;57.41;98724.97;8013437;28;20123;-66
2021/11/27 15:09:13;;;;;;;5.40;1.73;;;;;;;4.28;57.32;98729.44;8012354;28;20035;-66
2021/11/27 15:13:04;;;;;;;4.15;1.90;;;;;;;4.26;57.14;98739.13;8009721;28;20048;-66
2021/11/27 15:16:55;;;;;;;6.03;1.67;;;;;;;4.19;57.26;98736.16;8005452;28;20095;-66
2021/11/27 15:20:46;;;;;;;3.92;1.60;;;;;;;4.25;57.08;98733.13;8015201;28;20074;-66
2021/11/27 15:24:41;;;;;;;3.83;1.55;;;;;;;4.25;57.16;98745.28;8014854;28;20041;-66
2021/11/27 15:28:32;;;;;;;7.97;1.40;;;;;;;4.22;57.31;98741.16;8006598;28;20060;-66
2021/11/27 15:32:22;;;;;;;4.93;1.60;;;;;;;4.21;57.20;98752.47;8009355;28;20046;-66
2021/11/27 15:36:13;;;;;;;4.47;1.35;;;;;;;4.19;57.04;98756.13;8006690;28;20029;-66
2021/11/27 15:40:04;;;;;;;8.48;1.80;;;;;;;4.15;57.19;98752.91;8006774;28;20112;-66
2021/11/27 15:43:55;;;;;;;6.00;1.27;;;;;;;4.10;56.95;98762.00;8006183;28;20040;-66
2021/11/27 15:47:45;;;;;;;3.30;1.35;;;;;;;4.09;56.91;98768.13;8010455;28;20116;-66
2021/11/27 15:51:38;;;;;;;3.50;1.50;;;;;;;4.09;57.15;98770.72;8002003;28;20033;-66
2021/11/27 15:55:29;;;;;;;6.70;1.65;;;;;;;4.10;56.91;98769.78;8018162;28;20036;-66
2021/11/27 15:59:20;;;;;;;5.00;1.40;;;;;;;4.10;56.85;98780.19;7998089;28;20033;-66
2021/11/27 16:03:11;;;;;;;3.67;1.30;;;;;;;4.09;57.13;98774.16;8001394;28;20102;-66
2021/11/27 16:07:02;;;;;;;4.80;1.40;;;;;;;4.11;56.98;98776.66;8000230;28;20424;-66
2021/11/27 16:10:54;;;;;;;3.60;1.50;;;;;;;4.11;56.75;98787.03;8002723;28;20135;-66
2021/11/27 16:14:45;;;;;;;7.53;1.38;;;;;;;4.10;57.01;98787.97;8000037;28;20040;-66
2021/11/27 16:18:37;;;;;;;4.47;1.30;;;;;;;4.11;57.03;98793.03;8006537;28;20090;-66
2021/11/27 16:22:30;;;;;;;4.68;1.40;;;;;;;4.13;57.07;98804.19;8005333;28;20111;-66
2021/11/27 16:26:21;;;;;;;4.05;1.50;;;;;;;4.14;57.17;98807.59;8005209;28;20471;-67
2021/11/27 16:30:12;;;;;;;6.07;1.95;;;;;;;4.13;56.91;98803.34;8002738;28;20615;-66
2021/11/27 16:34:03;;;;;;;4.88;1.60;;;;;;;4.16;57.14;98805.72;8011538;28;20087;-66
2021/11/27 16:37:57;;;;;;;7.05;1.40;;;;;;;4.14;56.86;98807.59;8012814;28;20044;-66
2021/11/27 16:41:47;;;;;;;2.97;1.27;;;;;;;4.15;57.10;98811.88;8008076;28;20562;-67
2021/11/27 16:45:39;;;;;;;4.65;2.13;;;;;;;4.16;56.97;98822.13;8012256;28;20037;-65
2021/11/27 16:49:29;;;;;;;7.13;1.60;;;;;;;4.16;57.07;98827.34;8012422;28;20032;-65
2021/11/27 16:53:20;;;;;;;3.38;1.63;;;;;;;4.11;56.82;98821.63;8009749;28;20110;-65
2021/11/27 16:57:11;;;;;;;3.88;1.60;;;;;;;4.14;57.04;98834.44;8005722;28;20029;-66
2021/11/27 17:01:02;;;;;;;4.72;1.67;;;;;;;4.14;56.73;98828.41;8013315;28;20040;-65
2021/11/27 17:04:53;;;;;;;2.80;1.50;;;;;;;4.14;56.97;98831.81;8017599;28;20055;-65
2021/11/27 17:08:43;;;;;;;3.30;1.73;;;;;;;4.12;56.87;98830.25;8012825;28;20029;-65
2021/11/27 17:12:34;;;;;;;7.82;2.47;;;;;;;4.11;56.88;98826.81;8018889;28;20115;-65
2021/11/27 17:16:25;;;;;;;5.68;1.95;;;;;;;4.11;56.94;98831.22;8035657;28;20714;-65
2021/11/27 17:20:15;;;;;;;11.38;2.30;;;;;;;4.08;56.71;98834.00;8015279;28;20111;-65
2021/11/27 17:24:07;;;;;;;7.32;2.40;;;;;;;4.09;56.96;98843.47;8032924;28;20033;-65
2021/11/27 17:27:59;;;;;;;7.82;2.53;;;;;;;4.07;56.97;98846.19;8006896;28;20393;-65
2021/11/27 17:31:50;;;;;;;10.13;2.65;;;;;;;4.05;56.73;98847.22;8011399;28;20632;-65
2021/11/27 17:35:40;;;;;;;5.15;1.83;;;;;;;4.04;56.91;98859.38;8011240;28;20029;-66
2021/11/27 17:39:32;;;;;;;8.38;2.63;;;;;;;4.03;56.74;98856.88;8013303;28;20048;-68
2021/11/27 17:43:23;;;;;;;4.65;2.08;;;;;;;4.02;56.79;98852.66;8018191;28;20037;-65
2021/11/27 17:47:13;;;;;;;5.13;1.90;;;;;;;3.99;56.83;98851.09;8016118;28;20039;-66
2021/11/27 17:51:04;;;;;;;6.35;1.75;;;;;;;3.96;56.83;98846.13;8012478;28;20033;-65
2021/11/27 17:54:55;;;;;;;4.40;2.05;;;;;;;3.94;56.74;98854.97;8012350;28;20054;-65
2021/11/27 17:58:46;;;;;;;6.97;1.48;;;;;;;3.87;56.61;98851.13;8014568;28;20028;-65
2021/11/27 18:02:37;;;;;;;7.22;2.58;;;;;;;3.79;56.40;98852.50;8027033;28;20155;-68
2021/11/27 18:06:27;;;;;;;3.70;1.83;;;;;;;3.72;56.51;98848.69;8008882;28;20131;-68
2021/11/27 18:10:18;;;;;;;8.68;3.53;;;;;;;3.65;56.28;98857.84;8013470;28;20037;-68
2021/11/27 18:14:10;;;;;;;14.48;4.88;;;;;;;3.60;56.36;98870.31;8012897;28;20039;-67
2021/11/27 18:18:06;;;;;;;11.70;4.63;;;;;;;3.56;56.43;98878.41;8014756;28;20029;-68
2021/11/27 18:21:57;;;;;;;7.20;3.00;;;;;;;3.50;56.52;98871.03;8026710;28;20068;-68
2021/11/27 18:29:47;;;;;;;5.80;2.42;;;;;;;3.43;56.26;98893.16;8010812;28;20032;-67
2021/11/27 18:33:40;;;;;;;5.45;2.55;;;;;;;3.40;56.39;98894.19;8009184;28;20121;-67